sensor_id;sensor_type;location;lat;lon;timestamp;temperature;humidity
29571;DHT22;16814;52.118;11.436;2023-08-06T00:01:34;17.40;99.90
29571;DHT22;16814;52.118;11.436;2023-08-06T00:04:01;17.40;99.90
29571;DHT22;16814;52.118;11.436;2023-08-06T00:06:27;17.30;99.90
29571;DHT22;16814;52.118;11.436;2023-08-06T00:08:54;17.30;99.90
29571;DHT22;16814;52.118;11.436;2023-08-06T00:11:21;17.30;99.90
29571;DHT22;16814;52.118;11.436;2023-08-06T00:13:47;17.30;99.90
29571;DHT22;16814;52.118;11.436;2023-08-06T00:16:14;17.30;99.90
29571;DHT22;16814;52.118;11.436;2023-08-06T00:18:41;17.20;99.90
29571;DHT22;16814;52.118;11.436;2023-08-06T00:21:08;17.10;99.90
29571;DHT22;16814;52.118;11.436;2023-08-06T00:23:37;17.00;99.90
29571;DHT22;16814;52.118;11.436;2023-08-06T00:26:03;17.00;99.90
29571;DHT22;16814;52.118;11.436;2023-08-06T00:28:30;17.00;99.90
29571;DHT22;16814;52.118;11.436;2023-08-06T00:30:57;16.80;99.90
29571;DHT22;16814;52.118;11.436;2023-08-06T00:33:24;16.60;99.90
29571;DHT22;16814;52.118;11.436;2023-08-06T00:35:50;17.00;99.90
29571;DHT22;16814;52.118;11.436;2023-08-06T00:38:19;16.60;99.90
29571;DHT22;16814;52.118;11.436;2023-08-06T00:40:47;16.80;99.90
29571;DHT22;16814;52.118;11.436;2023-08-06T00:43:13;16.70;99.90
29571;DHT22;16814;52.118;11.436;2023-08-06T00:45:41;16.60;99.90
29571;DHT22;16814;52.118;11.436;2023-08-06T00:48:07;16.50;99.90
29571;DHT22;16814;52.118;11.436;2023-08-06T00:50:33;16.50;99.90
29571;DHT22;16814;52.118;11.436;2023-08-06T00:53:01;16.50;99.90
29571;DHT22;16814;52.118;11.436;2023-08-06T00:55:29;16.50;99.90
29571;DHT22;16814;52.118;11.436;2023-08-06T00:57:55;16.60;99.90
29571;DHT22;16814;52.118;11.436;2023-08-06T01:00:26;16.80;99.90
29571;DHT22;16814;52.118;11.436;2023-08-06T01:02:53;16.70;99.90
29571;DHT22;16814;52.118;11.436;2023-08-06T01:05:20;16.50;99.90
29571;DHT22;16814;52.118;11.436;2023-08-06T01:13:48;16.30;99.90
29571;DHT22;16814;52.118;11.436;2023-08-06T01:16:20;16.60;99.90
29571;DHT22;16814;52.118;11.436;2023-08-06T01:18:50;16.70;99.90
29571;DHT22;16814;52.118;11.436;2023-08-06T01:21:17;16.60;99.90
29571;DHT22;16814;52.118;11.436;2023-08-06T01:23:47;16.70;99.90
29571;DHT22;16814;52.118;11.436;2023-08-06T01:26:29;16.50;99.90
29571;DHT22;16814;52.118;11.436;2023-08-06T01:31:43;16.30;99.90
29571;DHT22;16814;52.118;11.436;2023-08-06T01:34:13;16.20;99.90
29571;DHT22;16814;52.118;11.436;2023-08-06T01:36:45;16.10;99.90
29571;DHT22;16814;52.118;11.436;2023-08-06T01:39:18;16.00;99.90
29571;DHT22;16814;52.118;11.436;2023-08-06T01:41:51;15.90;99.90
29571;DHT22;16814;52.118;11.436;2023-08-06T01:44:19;15.80;99.90
29571;DHT22;16814;52.118;11.436;2023-08-06T01:46:46;15.80;99.90
29571;DHT22;16814;52.118;11.436;2023-08-06T01:49:15;15.80;99.90
29571;DHT22;16814;52.118;11.436;2023-08-06T01:51:42;15.90;99.90
29571;DHT22;16814;52.118;11.436;2023-08-06T01:54:08;16.00;99.90
29571;DHT22;16814;52.118;11.436;2023-08-06T01:56:36;15.90;99.90
29571;DHT22;16814;52.118;11.436;2023-08-06T01:59:03;15.90;99.90
29571;DHT22;16814;52.118;11.436;2023-08-06T02:01:28;15.80;99.90
29571;DHT22;16814;52.118;11.436;2023-08-06T02:03:55;15.80;99.90
29571;DHT22;16814;52.118;11.436;2023-08-06T02:06:20;15.80;99.90
29571;DHT22;16814;52.118;11.436;2023-08-06T02:08:47;15.90;99.90
29571;DHT22;16814;52.118;11.436;2023-08-06T02:11:15;15.90;99.90
29571;DHT22;16814;52.118;11.436;2023-08-06T02:13:43;15.70;99.90
29571;DHT22;16814;52.118;11.436;2023-08-06T02:16:09;15.70;99.90
29571;DHT22;16814;52.118;11.436;2023-08-06T02:18:36;15.80;99.90
29571;DHT22;16814;52.118;11.436;2023-08-06T02:21:02;15.80;99.90
29571;DHT22;16814;52.118;11.436;2023-08-06T02:23:28;15.90;99.90
29571;DHT22;16814;52.118;11.436;2023-08-06T02:26:05;16.00;99.90
29571;DHT22;16814;52.118;11.436;2023-08-06T02:28:31;15.90;99.90
29571;DHT22;16814;52.118;11.436;2023-08-06T02:31:00;16.00;99.90
29571;DHT22;16814;52.118;11.436;2023-08-06T02:33:26;16.00;99.90
29571;DHT22;16814;52.118;11.436;2023-08-06T02:35:59;15.90;99.90
29571;DHT22;16814;52.118;11.436;2023-08-06T02:38:27;15.80;99.90
29571;DHT22;16814;52.118;11.436;2023-08-06T02:40:54;16.40;99.90
29571;DHT22;16814;52.118;11.436;2023-08-06T02:43:22;15.80;99.90
29571;DHT22;16814;52.118;11.436;2023-08-06T02:45:51;15.70;99.90
29571;DHT22;16814;52.118;11.436;2023-08-06T02:48:16;15.70;99.90
29571;DHT22;16814;52.118;11.436;2023-08-06T02:50:44;15.80;99.90
29571;DHT22;16814;52.118;11.436;2023-08-06T02:53:11;15.70;99.90
29571;DHT22;16814;52.118;11.436;2023-08-06T02:55:37;15.60;99.90
29571;DHT22;16814;52.118;11.436;2023-08-06T02:58:03;15.50;99.90
29571;DHT22;16814;52.118;11.436;2023-08-06T03:00:29;15.50;99.90
29571;DHT22;16814;52.118;11.436;2023-08-06T03:02:54;15.50;99.90
29571;DHT22;16814;52.118;11.436;2023-08-06T03:05:20;15.90;99.90
29571;DHT22;16814;52.118;11.436;2023-08-06T03:07:46;15.70;99.90
29571;DHT22;16814;52.118;11.436;2023-08-06T03:10:15;15.60;99.90
29571;DHT22;16814;52.118;11.436;2023-08-06T03:12:44;15.40;99.90
29571;DHT22;16814;52.118;11.436;2023-08-06T03:15:10;15.40;99.90
29571;DHT22;16814;52.118;11.436;2023-08-06T03:17:37;15.30;99.90
29571;DHT22;16814;52.118;11.436;2023-08-06T03:20:05;15.20;99.90
29571;DHT22;16814;52.118;11.436;2023-08-06T03:22:31;15.10;99.90
29571;DHT22;16814;52.118;11.436;2023-08-06T03:24:56;15.00;99.90
29571;DHT22;16814;52.118;11.436;2023-08-06T03:27:22;14.90;99.90
29571;DHT22;16814;52.118;11.436;2023-08-06T03:29:53;14.80;99.90
29571;DHT22;16814;52.118;11.436;2023-08-06T03:32:19;14.90;99.90
29571;DHT22;16814;52.118;11.436;2023-08-06T03:34:49;14.80;99.90
29571;DHT22;16814;52.118;11.436;2023-08-06T03:37:15;14.80;99.90
29571;DHT22;16814;52.118;11.436;2023-08-06T03:39:42;14.90;99.90
29571;DHT22;16814;52.118;11.436;2023-08-06T03:42:08;15.00;99.90
29571;DHT22;16814;52.118;11.436;2023-08-06T03:44:34;14.90;99.90
29571;DHT22;16814;52.118;11.436;2023-08-06T03:47:03;15.10;99.90
29571;DHT22;16814;52.118;11.436;2023-08-06T03:49:30;15.10;99.90
29571;DHT22;16814;52.118;11.436;2023-08-06T03:51:56;15.10;99.90
29571;DHT22;16814;52.118;11.436;2023-08-06T03:54:24;15.10;99.90
29571;DHT22;16814;52.118;11.436;2023-08-06T03:56:51;15.10;99.90
29571;DHT22;16814;52.118;11.436;2023-08-06T03:59:19;15.10;99.90
29571;DHT22;16814;52.118;11.436;2023-08-06T04:01:47;15.00;99.90
29571;DHT22;16814;52.118;11.436;2023-08-06T04:04:14;15.00;99.90
29571;DHT22;16814;52.118;11.436;2023-08-06T04:06:41;15.00;99.90
29571;DHT22;16814;52.118;11.436;2023-08-06T04:09:08;14.90;99.90
29571;DHT22;16814;52.118;11.436;2023-08-06T04:11:36;14.90;99.90
29571;DHT22;16814;52.118;11.436;2023-08-06T04:14:01;14.90;99.90
29571;DHT22;16814;52.118;11.436;2023-08-06T04:16:27;14.80;99.90
29571;DHT22;16814;52.118;11.436;2023-08-06T04:18:54;14.80;99.90
29571;DHT22;16814;52.118;11.436;2023-08-06T04:21:21;14.90;99.90
29571;DHT22;16814;52.118;11.436;2023-08-06T04:23:46;15.10;99.90
29571;DHT22;16814;52.118;11.436;2023-08-06T04:26:14;15.10;99.90
29571;DHT22;16814;52.118;11.436;2023-08-06T04:28:41;15.30;99.90
29571;DHT22;16814;52.118;11.436;2023-08-06T04:31:07;15.30;99.90
29571;DHT22;16814;52.118;11.436;2023-08-06T04:33:34;15.50;99.90
29571;DHT22;16814;52.118;11.436;2023-08-06T04:36:02;15.80;99.90
29571;DHT22;16814;52.118;11.436;2023-08-06T04:38:31;15.40;99.90
29571;DHT22;16814;52.118;11.436;2023-08-06T04:40:59;15.50;99.90
29571;DHT22;16814;52.118;11.436;2023-08-06T04:43:24;15.50;99.90
29571;DHT22;16814;52.118;11.436;2023-08-06T04:45:54;15.40;99.90
29571;DHT22;16814;52.118;11.436;2023-08-06T04:48:22;15.50;99.90
29571;DHT22;16814;52.118;11.436;2023-08-06T04:50:50;15.50;99.90
29571;DHT22;16814;52.118;11.436;2023-08-06T04:53:17;15.80;99.90
29571;DHT22;16814;52.118;11.436;2023-08-06T04:55:44;15.60;99.90
29571;DHT22;16814;52.118;11.436;2023-08-06T04:58:14;15.60;99.90
29571;DHT22;16814;52.118;11.436;2023-08-06T05:00:41;15.40;99.90
29571;DHT22;16814;52.118;11.436;2023-08-06T05:03:08;15.30;99.90
29571;DHT22;16814;52.118;11.436;2023-08-06T05:05:35;15.20;99.90
29571;DHT22;16814;52.118;11.436;2023-08-06T05:08:01;15.20;99.90
29571;DHT22;16814;52.118;11.436;2023-08-06T05:10:29;15.20;99.90
29571;DHT22;16814;52.118;11.436;2023-08-06T05:12:57;15.30;99.90
29571;DHT22;16814;52.118;11.436;2023-08-06T05:15:23;15.40;99.90
29571;DHT22;16814;52.118;11.436;2023-08-06T05:17:51;15.40;99.90
29571;DHT22;16814;52.118;11.436;2023-08-06T05:20:18;15.40;99.90
29571;DHT22;16814;52.118;11.436;2023-08-06T05:22:47;15.40;99.90
29571;DHT22;16814;52.118;11.436;2023-08-06T05:25:15;15.40;99.90
29571;DHT22;16814;52.118;11.436;2023-08-06T05:27:43;15.40;99.90
29571;DHT22;16814;52.118;11.436;2023-08-06T05:30:12;15.50;99.90
29571;DHT22;16814;52.118;11.436;2023-08-06T05:32:40;15.60;99.90
29571;DHT22;16814;52.118;11.436;2023-08-06T05:35:07;15.60;99.90
29571;DHT22;16814;52.118;11.436;2023-08-06T05:37:33;15.70;99.90
29571;DHT22;16814;52.118;11.436;2023-08-06T05:40:00;16.20;99.90
29571;DHT22;16814;52.118;11.436;2023-08-06T05:42:30;16.00;99.90
29571;DHT22;16814;52.118;11.436;2023-08-06T05:44:57;16.00;99.90
29571;DHT22;16814;52.118;11.436;2023-08-06T05:47:25;16.10;99.90
29571;DHT22;16814;52.118;11.436;2023-08-06T05:49:57;16.00;99.90
29571;DHT22;16814;52.118;11.436;2023-08-06T05:52:23;16.20;99.90
29571;DHT22;16814;52.118;11.436;2023-08-06T05:54:50;16.00;99.90
29571;DHT22;16814;52.118;11.436;2023-08-06T05:57:17;16.10;99.90
29571;DHT22;16814;52.118;11.436;2023-08-06T05:59:45;16.00;99.90
29571;DHT22;16814;52.118;11.436;2023-08-06T06:02:10;16.20;99.90
29571;DHT22;16814;52.118;11.436;2023-08-06T06:04:37;16.20;99.90
29571;DHT22;16814;52.118;11.436;2023-08-06T06:07:05;16.20;99.90
29571;DHT22;16814;52.118;11.436;2023-08-06T06:09:31;16.20;99.90
29571;DHT22;16814;52.118;11.436;2023-08-06T06:12:00;16.10;99.90
29571;DHT22;16814;52.118;11.436;2023-08-06T06:14:26;16.40;99.90
29571;DHT22;16814;52.118;11.436;2023-08-06T06:16:51;16.60;99.90
29571;DHT22;16814;52.118;11.436;2023-08-06T06:19:18;16.60;99.90
29571;DHT22;16814;52.118;11.436;2023-08-06T06:21:47;16.60;99.90
29571;DHT22;16814;52.118;11.436;2023-08-06T06:24:15;16.60;99.90
29571;DHT22;16814;52.118;11.436;2023-08-06T06:26:43;16.50;99.90
29571;DHT22;16814;52.118;11.436;2023-08-06T06:29:12;16.40;99.90
29571;DHT22;16814;52.118;11.436;2023-08-06T06:31:39;16.30;99.90
29571;DHT22;16814;52.118;11.436;2023-08-06T06:34:06;16.30;99.90
29571;DHT22;16814;52.118;11.436;2023-08-06T06:36:32;16.50;99.90
29571;DHT22;16814;52.118;11.436;2023-08-06T06:38:59;16.30;99.90
29571;DHT22;16814;52.118;11.436;2023-08-06T06:41:25;16.20;99.90
29571;DHT22;16814;52.118;11.436;2023-08-06T06:43:52;16.20;99.90
29571;DHT22;16814;52.118;11.436;2023-08-06T06:46:18;16.10;99.90
29571;DHT22;16814;52.118;11.436;2023-08-06T06:48:44;16.20;99.90
29571;DHT22;16814;52.118;11.436;2023-08-06T06:51:12;16.20;99.90
29571;DHT22;16814;52.118;11.436;2023-08-06T06:53:39;16.20;99.90
29571;DHT22;16814;52.118;11.436;2023-08-06T06:56:09;16.30;99.90
29571;DHT22;16814;52.118;11.436;2023-08-06T06:58:36;16.30;99.90
29571;DHT22;16814;52.118;11.436;2023-08-06T07:01:05;16.40;99.90
29571;DHT22;16814;52.118;11.436;2023-08-06T07:03:30;16.50;99.90
29571;DHT22;16814;52.118;11.436;2023-08-06T07:06:02;16.50;99.90
29571;DHT22;16814;52.118;11.436;2023-08-06T07:08:30;16.60;99.90
29571;DHT22;16814;52.118;11.436;2023-08-06T07:11:02;16.90;99.90
29571;DHT22;16814;52.118;11.436;2023-08-06T07:13:31;17.20;99.90
29571;DHT22;16814;52.118;11.436;2023-08-06T07:15:58;17.30;99.90
29571;DHT22;16814;52.118;11.436;2023-08-06T07:18:25;17.30;99.90
29571;DHT22;16814;52.118;11.436;2023-08-06T07:20:57;17.30;99.90
29571;DHT22;16814;52.118;11.436;2023-08-06T07:23:26;17.40;99.90
29571;DHT22;16814;52.118;11.436;2023-08-06T07:25:53;17.40;99.90
29571;DHT22;16814;52.118;11.436;2023-08-06T07:28:20;17.50;99.90
29571;DHT22;16814;52.118;11.436;2023-08-06T07:30:48;17.40;99.90
29571;DHT22;16814;52.118;11.436;2023-08-06T07:33:13;17.50;99.90
29571;DHT22;16814;52.118;11.436;2023-08-06T07:35:43;17.50;99.90
29571;DHT22;16814;52.118;11.436;2023-08-06T07:38:11;17.50;99.90
29571;DHT22;16814;52.118;11.436;2023-08-06T07:40:40;18.00;99.90
29571;DHT22;16814;52.118;11.436;2023-08-06T07:43:07;18.20;99.90
29571;DHT22;16814;52.118;11.436;2023-08-06T07:45:34;18.10;99.90
29571;DHT22;16814;52.118;11.436;2023-08-06T07:48:02;18.20;99.90
29571;DHT22;16814;52.118;11.436;2023-08-06T07:50:29;17.90;99.90
29571;DHT22;16814;52.118;11.436;2023-08-06T07:52:56;17.60;99.90
29571;DHT22;16814;52.118;11.436;2023-08-06T07:55:24;18.00;99.90
29571;DHT22;16814;52.118;11.436;2023-08-06T07:57:52;17.90;99.90
29571;DHT22;16814;52.118;11.436;2023-08-06T08:00:19;17.80;99.90
29571;DHT22;16814;52.118;11.436;2023-08-06T08:02:47;17.80;99.90
29571;DHT22;16814;52.118;11.436;2023-08-06T08:05:20;17.80;99.90
29571;DHT22;16814;52.118;11.436;2023-08-06T08:07:48;17.90;99.90
29571;DHT22;16814;52.118;11.436;2023-08-06T08:10:16;18.00;99.90
29571;DHT22;16814;52.118;11.436;2023-08-06T08:12:43;18.00;99.90
29571;DHT22;16814;52.118;11.436;2023-08-06T08:15:11;18.30;99.90
29571;DHT22;16814;52.118;11.436;2023-08-06T08:17:39;18.20;99.90
29571;DHT22;16814;52.118;11.436;2023-08-06T08:20:06;18.20;99.90
29571;DHT22;16814;52.118;11.436;2023-08-06T08:22:33;18.30;99.90
29571;DHT22;16814;52.118;11.436;2023-08-06T08:25:01;18.30;99.90
29571;DHT22;16814;52.118;11.436;2023-08-06T08:27:27;18.30;99.90
29571;DHT22;16814;52.118;11.436;2023-08-06T08:29:52;18.30;99.90
29571;DHT22;16814;52.118;11.436;2023-08-06T08:32:18;18.30;99.90
29571;DHT22;16814;52.118;11.436;2023-08-06T08:34:54;18.40;99.90
29571;DHT22;16814;52.118;11.436;2023-08-06T08:37:21;18.40;99.90
29571;DHT22;16814;52.118;11.436;2023-08-06T08:39:50;18.30;99.90
29571;DHT22;16814;52.118;11.436;2023-08-06T08:42:18;18.50;99.90
29571;DHT22;16814;52.118;11.436;2023-08-06T08:44:46;18.70;99.90
29571;DHT22;16814;52.118;11.436;2023-08-06T08:47:14;18.80;99.90
29571;DHT22;16814;52.118;11.436;2023-08-06T08:49:44;18.80;99.90
29571;DHT22;16814;52.118;11.436;2023-08-06T08:52:12;18.90;99.90
29571;DHT22;16814;52.118;11.436;2023-08-06T08:54:46;18.90;99.90
29571;DHT22;16814;52.118;11.436;2023-08-06T08:57:14;18.80;99.90
29571;DHT22;16814;52.118;11.436;2023-08-06T08:59:40;19.00;99.90
29571;DHT22;16814;52.118;11.436;2023-08-06T09:02:12;18.90;99.90
29571;DHT22;16814;52.118;11.436;2023-08-06T09:04:40;19.00;99.90
29571;DHT22;16814;52.118;11.436;2023-08-06T09:07:09;19.30;99.90
29571;DHT22;16814;52.118;11.436;2023-08-06T09:09:38;19.50;99.90
29571;DHT22;16814;52.118;11.436;2023-08-06T09:12:15;19.50;99.90
29571;DHT22;16814;52.118;11.436;2023-08-06T09:14:41;19.40;99.90
29571;DHT22;16814;52.118;11.436;2023-08-06T09:17:09;19.30;99.90
29571;DHT22;16814;52.118;11.436;2023-08-06T09:19:47;19.70;99.90
29571;DHT22;16814;52.118;11.436;2023-08-06T09:22:19;19.90;99.90
29571;DHT22;16814;52.118;11.436;2023-08-06T09:24:47;20.40;99.90
29571;DHT22;16814;52.118;11.436;2023-08-06T09:27:15;20.90;99.90
29571;DHT22;16814;52.118;11.436;2023-08-06T09:29:46;21.10;99.90
29571;DHT22;16814;52.118;11.436;2023-08-06T09:32:13;21.70;99.90
29571;DHT22;16814;52.118;11.436;2023-08-06T09:34:41;21.80;99.90
29571;DHT22;16814;52.118;11.436;2023-08-06T09:37:12;22.00;99.90
29571;DHT22;16814;52.118;11.436;2023-08-06T09:39:40;21.90;99.90
29571;DHT22;16814;52.118;11.436;2023-08-06T09:42:07;22.50;99.90
29571;DHT22;16814;52.118;11.436;2023-08-06T09:44:34;23.10;99.90
29571;DHT22;16814;52.118;11.436;2023-08-06T09:47:03;23.00;99.90
29571;DHT22;16814;52.118;11.436;2023-08-06T09:51:59;22.30;99.90
29571;DHT22;16814;52.118;11.436;2023-08-06T09:54:28;21.60;99.90
29571;DHT22;16814;52.118;11.436;2023-08-06T09:56:57;21.20;99.90
29571;DHT22;16814;52.118;11.436;2023-08-06T09:59:26;21.40;99.90
29571;DHT22;16814;52.118;11.436;2023-08-06T10:01:54;22.00;99.90
29571;DHT22;16814;52.118;11.436;2023-08-06T10:04:22;22.60;99.90
29571;DHT22;16814;52.118;11.436;2023-08-06T10:06:49;23.20;99.90
29571;DHT22;16814;52.118;11.436;2023-08-06T10:09:17;23.30;99.90
29571;DHT22;16814;52.118;11.436;2023-08-06T10:11:50;23.30;99.90
29571;DHT22;16814;52.118;11.436;2023-08-06T10:14:28;23.30;99.90
29571;DHT22;16814;52.118;11.436;2023-08-06T10:16:57;23.80;99.90
29571;DHT22;16814;52.118;11.436;2023-08-06T10:19:27;24.20;99.90
29571;DHT22;16814;52.118;11.436;2023-08-06T10:22:12;24.20;99.90
29571;DHT22;16814;52.118;11.436;2023-08-06T10:24:51;23.40;99.90
29571;DHT22;16814;52.118;11.436;2023-08-06T10:30:27;22.90;99.90
29571;DHT22;16814;52.118;11.436;2023-08-06T10:32:56;22.80;99.90
29571;DHT22;16814;52.118;11.436;2023-08-06T10:38:22;23.30;99.90
29571;DHT22;16814;52.118;11.436;2023-08-06T10:43:36;23.40;99.90
29571;DHT22;16814;52.118;11.436;2023-08-06T10:46:26;23.50;99.90
29571;DHT22;16814;52.118;11.436;2023-08-06T10:48:59;23.00;99.90
29571;DHT22;16814;52.118;11.436;2023-08-06T10:51:26;23.00;99.90
29571;DHT22;16814;52.118;11.436;2023-08-06T10:53:53;22.90;99.90
29571;DHT22;16814;52.118;11.436;2023-08-06T10:56:24;22.80;99.90
29571;DHT22;16814;52.118;11.436;2023-08-06T10:58:59;22.70;99.90
29571;DHT22;16814;52.118;11.436;2023-08-06T11:01:28;22.50;99.90
29571;DHT22;16814;52.118;11.436;2023-08-06T11:03:55;22.70;99.90
29571;DHT22;16814;52.118;11.436;2023-08-06T11:06:23;22.80;99.90
29571;DHT22;16814;52.118;11.436;2023-08-06T11:08:53;23.00;99.90
29571;DHT22;16814;52.118;11.436;2023-08-06T11:11:21;22.70;99.90
29571;DHT22;16814;52.118;11.436;2023-08-06T11:13:59;22.70;99.90
29571;DHT22;16814;52.118;11.436;2023-08-06T11:16:29;23.10;99.90
29571;DHT22;16814;52.118;11.436;2023-08-06T11:18:58;22.60;99.90
29571;DHT22;16814;52.118;11.436;2023-08-06T11:21:27;22.80;99.90
29571;DHT22;16814;52.118;11.436;2023-08-06T11:23:53;22.80;99.90
29571;DHT22;16814;52.118;11.436;2023-08-06T11:26:23;22.70;99.90
29571;DHT22;16814;52.118;11.436;2023-08-06T11:28:49;22.20;99.90
29571;DHT22;16814;52.118;11.436;2023-08-06T11:31:19;21.80;99.90
29571;DHT22;16814;52.118;11.436;2023-08-06T11:33:47;21.70;99.90
29571;DHT22;16814;52.118;11.436;2023-08-06T11:36:14;21.90;99.90
29571;DHT22;16814;52.118;11.436;2023-08-06T11:38:41;22.20;99.90
29571;DHT22;16814;52.118;11.436;2023-08-06T11:41:16;22.60;99.90
29571;DHT22;16814;52.118;11.436;2023-08-06T11:43:47;23.20;99.90
29571;DHT22;16814;52.118;11.436;2023-08-06T11:46:14;22.80;99.90
29571;DHT22;16814;52.118;11.436;2023-08-06T11:48:58;22.60;99.90
29571;DHT22;16814;52.118;11.436;2023-08-06T11:51:27;22.10;99.90
29571;DHT22;16814;52.118;11.436;2023-08-06T11:53:59;22.00;99.90
29571;DHT22;16814;52.118;11.436;2023-08-06T11:56:27;22.10;99.90
29571;DHT22;16814;52.118;11.436;2023-08-06T11:58:55;22.20;99.90
29571;DHT22;16814;52.118;11.436;2023-08-06T12:01:23;22.50;99.90
29571;DHT22;16814;52.118;11.436;2023-08-06T12:03:48;22.40;99.90
29571;DHT22;16814;52.118;11.436;2023-08-06T12:06:17;22.80;99.90
29571;DHT22;16814;52.118;11.436;2023-08-06T12:08:44;23.00;99.90
29571;DHT22;16814;52.118;11.436;2023-08-06T12:11:09;23.50;99.90
29571;DHT22;16814;52.118;11.436;2023-08-06T12:13:37;22.60;99.90
29571;DHT22;16814;52.118;11.436;2023-08-06T12:16:04;22.60;99.90
29571;DHT22;16814;52.118;11.436;2023-08-06T12:18:30;22.40;99.90
29571;DHT22;16814;52.118;11.436;2023-08-06T12:20:58;22.40;99.90
29571;DHT22;16814;52.118;11.436;2023-08-06T12:23:24;22.20;99.90
29571;DHT22;16814;52.118;11.436;2023-08-06T12:25:56;22.20;99.90
29571;DHT22;16814;52.118;11.436;2023-08-06T12:28:21;22.30;99.90
29571;DHT22;16814;52.118;11.436;2023-08-06T12:30:59;22.20;99.90
29571;DHT22;16814;52.118;11.436;2023-08-06T12:33:26;21.90;99.90
29571;DHT22;16814;52.118;11.436;2023-08-06T12:35:56;21.70;99.90
29571;DHT22;16814;52.118;11.436;2023-08-06T12:38:26;22.00;99.90
29571;DHT22;16814;52.118;11.436;2023-08-06T12:41:00;22.00;99.90
29571;DHT22;16814;52.118;11.436;2023-08-06T12:43:27;21.80;99.90
29571;DHT22;16814;52.118;11.436;2023-08-06T12:45:52;21.60;99.90
29571;DHT22;16814;52.118;11.436;2023-08-06T12:48:20;21.60;99.90
29571;DHT22;16814;52.118;11.436;2023-08-06T12:50:46;21.60;99.90
29571;DHT22;16814;52.118;11.436;2023-08-06T12:53:13;21.40;99.90
29571;DHT22;16814;52.118;11.436;2023-08-06T12:55:40;21.30;99.90
29571;DHT22;16814;52.118;11.436;2023-08-06T12:58:16;21.40;99.90
29571;DHT22;16814;52.118;11.436;2023-08-06T13:00:43;21.40;99.90
29571;DHT22;16814;52.118;11.436;2023-08-06T13:03:11;21.70;99.90
29571;DHT22;16814;52.118;11.436;2023-08-06T13:05:38;21.80;99.90
29571;DHT22;16814;52.118;11.436;2023-08-06T13:08:14;21.70;99.90
29571;DHT22;16814;52.118;11.436;2023-08-06T13:10:42;21.70;99.90
29571;DHT22;16814;52.118;11.436;2023-08-06T13:13:09;21.60;99.90
29571;DHT22;16814;52.118;11.436;2023-08-06T13:15:38;21.60;99.90
29571;DHT22;16814;52.118;11.436;2023-08-06T13:18:05;21.50;99.90
29571;DHT22;16814;52.118;11.436;2023-08-06T13:20:33;21.40;99.90
29571;DHT22;16814;52.118;11.436;2023-08-06T13:23:00;21.40;99.90
29571;DHT22;16814;52.118;11.436;2023-08-06T13:25:27;21.60;99.90
29571;DHT22;16814;52.118;11.436;2023-08-06T13:27:56;21.80;99.90
29571;DHT22;16814;52.118;11.436;2023-08-06T13:30:24;21.70;99.90
29571;DHT22;16814;52.118;11.436;2023-08-06T13:32:51;21.70;99.90
29571;DHT22;16814;52.118;11.436;2023-08-06T13:35:16;22.20;99.90
29571;DHT22;16814;52.118;11.436;2023-08-06T13:37:43;21.60;99.90
29571;DHT22;16814;52.118;11.436;2023-08-06T13:40:09;21.60;99.90
29571;DHT22;16814;52.118;11.436;2023-08-06T13:42:37;21.60;99.90
29571;DHT22;16814;52.118;11.436;2023-08-06T13:45:10;21.60;99.90
29571;DHT22;16814;52.118;11.436;2023-08-06T13:47:38;22.00;99.90
29571;DHT22;16814;52.118;11.436;2023-08-06T13:50:05;21.90;99.90
29571;DHT22;16814;52.118;11.436;2023-08-06T13:52:30;21.70;99.90
29571;DHT22;16814;52.118;11.436;2023-08-06T13:54:58;21.60;99.90
29571;DHT22;16814;52.118;11.436;2023-08-06T13:57:26;21.40;99.90
29571;DHT22;16814;52.118;11.436;2023-08-06T13:59:52;21.30;99.90
29571;DHT22;16814;52.118;11.436;2023-08-06T14:02:18;21.30;99.90
29571;DHT22;16814;52.118;11.436;2023-08-06T14:04:45;21.40;99.90
29571;DHT22;16814;52.118;11.436;2023-08-06T14:07:12;21.40;99.90
29571;DHT22;16814;52.118;11.436;2023-08-06T14:09:38;21.70;99.90
29571;DHT22;16814;52.118;11.436;2023-08-06T14:12:07;21.50;99.90
29571;DHT22;16814;52.118;11.436;2023-08-06T14:14:34;21.50;99.90
29571;DHT22;16814;52.118;11.436;2023-08-06T14:17:02;21.60;99.90
29571;DHT22;16814;52.118;11.436;2023-08-06T14:19:29;21.70;99.90
29571;DHT22;16814;52.118;11.436;2023-08-06T14:21:57;21.70;99.90
29571;DHT22;16814;52.118;11.436;2023-08-06T14:24:24;21.70;99.90
29571;DHT22;16814;52.118;11.436;2023-08-06T14:26:52;21.60;99.90
29571;DHT22;16814;52.118;11.436;2023-08-06T14:29:21;21.60;99.90
29571;DHT22;16814;52.118;11.436;2023-08-06T14:31:50;21.70;99.90
29571;DHT22;16814;52.118;11.436;2023-08-06T14:34:18;21.60;99.90
29571;DHT22;16814;52.118;11.436;2023-08-06T14:36:43;21.30;99.90
29571;DHT22;16814;52.118;11.436;2023-08-06T14:39:11;21.50;99.90
29571;DHT22;16814;52.118;11.436;2023-08-06T14:41:38;21.50;99.90
29571;DHT22;16814;52.118;11.436;2023-08-06T14:44:03;21.50;99.90
29571;DHT22;16814;52.118;11.436;2023-08-06T14:46:31;21.50;99.90
29571;DHT22;16814;52.118;11.436;2023-08-06T14:48:59;21.40;99.90
29571;DHT22;16814;52.118;11.436;2023-08-06T14:51:26;21.30;99.90
29571;DHT22;16814;52.118;11.436;2023-08-06T14:53:54;21.30;99.90
29571;DHT22;16814;52.118;11.436;2023-08-06T14:56:21;21.30;99.90
29571;DHT22;16814;52.118;11.436;2023-08-06T14:58:46;21.10;99.90
29571;DHT22;16814;52.118;11.436;2023-08-06T15:01:14;21.00;99.90
29571;DHT22;16814;52.118;11.436;2023-08-06T15:03:43;20.90;99.90
29571;DHT22;16814;52.118;11.436;2023-08-06T15:06:08;21.00;99.90
29571;DHT22;16814;52.118;11.436;2023-08-06T15:08:36;21.00;99.90
29571;DHT22;16814;52.118;11.436;2023-08-06T15:11:05;21.00;99.90
29571;DHT22;16814;52.118;11.436;2023-08-06T15:13:32;20.90;99.90
29571;DHT22;16814;52.118;11.436;2023-08-06T15:16:00;20.90;99.90
29571;DHT22;16814;52.118;11.436;2023-08-06T15:18:28;20.80;99.90
29571;DHT22;16814;52.118;11.436;2023-08-06T15:20:54;20.60;99.90
29571;DHT22;16814;52.118;11.436;2023-08-06T15:23:21;20.60;99.90
29571;DHT22;16814;52.118;11.436;2023-08-06T15:25:48;20.60;99.90
29571;DHT22;16814;52.118;11.436;2023-08-06T15:28:16;20.60;99.90
29571;DHT22;16814;52.118;11.436;2023-08-06T15:30:50;20.70;99.90
29571;DHT22;16814;52.118;11.436;2023-08-06T15:33:23;20.80;99.90
29571;DHT22;16814;52.118;11.436;2023-08-06T15:35:49;20.90;99.90
29571;DHT22;16814;52.118;11.436;2023-08-06T15:38:16;20.90;99.90
29571;DHT22;16814;52.118;11.436;2023-08-06T15:40:41;20.70;99.90